sensor_id;sensor_type;location;lat;lon;timestamp;temperature;humidity
12413;DHT22;13877;18.896;-99.222;2024-01-15T00:01:46;24.20;1.00
12413;DHT22;13877;18.896;-99.222;2024-01-15T00:04:13;24.10;1.00
12413;DHT22;13877;18.896;-99.222;2024-01-15T00:06:40;23.90;1.00
12413;DHT22;13877;18.896;-99.222;2024-01-15T00:09:07;23.70;1.00
12413;DHT22;13877;18.896;-99.222;2024-01-15T00:11:34;23.50;1.00
12413;DHT22;13877;18.896;-99.222;2024-01-15T00:14:01;23.30;1.00
12413;DHT22;13877;18.896;-99.222;2024-01-15T00:16:27;23.20;1.00
12413;DHT22;13877;18.896;-99.222;2024-01-15T00:18:54;23.20;1.00
12413;DHT22;13877;18.896;-99.222;2024-01-15T00:21:21;22.90;1.00
12413;DHT22;13877;18.896;-99.222;2024-01-15T00:23:48;22.70;1.00
12413;DHT22;13877;18.896;-99.222;2024-01-15T00:26:15;22.30;1.00
12413;DHT22;13877;18.896;-99.222;2024-01-15T00:28:41;22.00;1.00
12413;DHT22;13877;18.896;-99.222;2024-01-15T00:31:10;21.90;1.00
12413;DHT22;13877;18.896;-99.222;2024-01-15T00:33:36;21.80;1.00
12413;DHT22;13877;18.896;-99.222;2024-01-15T00:36:03;21.80;1.00
12413;DHT22;13877;18.896;-99.222;2024-01-15T00:38:32;21.80;1.00
12413;DHT22;13877;18.896;-99.222;2024-01-15T00:40:59;21.80;1.00
12413;DHT22;13877;18.896;-99.222;2024-01-15T00:43:25;22.00;1.00
12413;DHT22;13877;18.896;-99.222;2024-01-15T00:45:52;22.10;1.00
12413;DHT22;13877;18.896;-99.222;2024-01-15T00:48:19;22.10;1.00
12413;DHT22;13877;18.896;-99.222;2024-01-15T00:50:46;21.90;1.00
12413;DHT22;13877;18.896;-99.222;2024-01-15T00:53:13;21.80;1.00
12413;DHT22;13877;18.896;-99.222;2024-01-15T00:55:40;21.70;1.00
12413;DHT22;13877;18.896;-99.222;2024-01-15T00:58:08;21.60;1.00
12413;DHT22;13877;18.896;-99.222;2024-01-15T01:00:34;21.50;1.00
12413;DHT22;13877;18.896;-99.222;2024-01-15T01:03:01;21.70;1.00
12413;DHT22;13877;18.896;-99.222;2024-01-15T01:05:29;22.00;1.00
12413;DHT22;13877;18.896;-99.222;2024-01-15T01:07:56;22.10;1.00
12413;DHT22;13877;18.896;-99.222;2024-01-15T01:10:23;22.20;1.00
12413;DHT22;13877;18.896;-99.222;2024-01-15T01:12:50;22.20;1.00
12413;DHT22;13877;18.896;-99.222;2024-01-15T01:15:18;22.20;1.00
12413;DHT22;13877;18.896;-99.222;2024-01-15T01:17:46;22.10;1.00
12413;DHT22;13877;18.896;-99.222;2024-01-15T01:20:13;22.00;1.00
12413;DHT22;13877;18.896;-99.222;2024-01-15T01:22:41;21.90;1.00
12413;DHT22;13877;18.896;-99.222;2024-01-15T01:25:08;21.90;1.00
12413;DHT22;13877;18.896;-99.222;2024-01-15T01:27:35;21.90;1.00
12413;DHT22;13877;18.896;-99.222;2024-01-15T01:30:04;21.90;1.00
12413;DHT22;13877;18.896;-99.222;2024-01-15T01:32:31;21.70;1.00
12413;DHT22;13877;18.896;-99.222;2024-01-15T01:34:58;21.80;1.00
12413;DHT22;13877;18.896;-99.222;2024-01-15T01:37:25;21.80;1.00
12413;DHT22;13877;18.896;-99.222;2024-01-15T01:39:52;21.80;1.00
12413;DHT22;13877;18.896;-99.222;2024-01-15T01:42:19;21.80;1.00
12413;DHT22;13877;18.896;-99.222;2024-01-15T01:44:46;21.80;1.00
12413;DHT22;13877;18.896;-99.222;2024-01-15T01:47:14;21.80;1.00
12413;DHT22;13877;18.896;-99.222;2024-01-15T01:49:41;21.80;1.00
12413;DHT22;13877;18.896;-99.222;2024-01-15T01:52:09;21.70;1.00
12413;DHT22;13877;18.896;-99.222;2024-01-15T01:54:37;21.60;1.00
12413;DHT22;13877;18.896;-99.222;2024-01-15T01:57:05;21.60;1.00
12413;DHT22;13877;18.896;-99.222;2024-01-15T01:59:34;21.50;1.00
12413;DHT22;13877;18.896;-99.222;2024-01-15T02:02:02;21.40;1.00
12413;DHT22;13877;18.896;-99.222;2024-01-15T02:04:30;21.40;1.00
12413;DHT22;13877;18.896;-99.222;2024-01-15T02:06:59;21.40;1.00
12413;DHT22;13877;18.896;-99.222;2024-01-15T02:09:26;21.30;1.00
12413;DHT22;13877;18.896;-99.222;2024-01-15T02:11:53;21.30;1.00
12413;DHT22;13877;18.896;-99.222;2024-01-15T02:14:20;21.30;1.00
12413;DHT22;13877;18.896;-99.222;2024-01-15T02:16:48;21.30;1.00
12413;DHT22;13877;18.896;-99.222;2024-01-15T02:19:16;21.30;1.00
12413;DHT22;13877;18.896;-99.222;2024-01-15T02:21:43;21.20;1.00
12413;DHT22;13877;18.896;-99.222;2024-01-15T02:24:11;21.20;1.00
12413;DHT22;13877;18.896;-99.222;2024-01-15T02:26:37;21.20;1.00
12413;DHT22;13877;18.896;-99.222;2024-01-15T02:29:09;21.20;1.00
12413;DHT22;13877;18.896;-99.222;2024-01-15T02:31:37;21.30;1.00
12413;DHT22;13877;18.896;-99.222;2024-01-15T02:34:04;21.10;1.00
12413;DHT22;13877;18.896;-99.222;2024-01-15T02:36:31;21.10;1.00
12413;DHT22;13877;18.896;-99.222;2024-01-15T02:38:58;21.00;1.00
12413;DHT22;13877;18.896;-99.222;2024-01-15T02:41:25;21.00;1.00
12413;DHT22;13877;18.896;-99.222;2024-01-15T02:43:51;21.00;1.00
12413;DHT22;13877;18.896;-99.222;2024-01-15T02:46:19;21.10;1.00
12413;DHT22;13877;18.896;-99.222;2024-01-15T02:48:46;21.20;1.00
12413;DHT22;13877;18.896;-99.222;2024-01-15T02:51:14;21.10;1.00
12413;DHT22;13877;18.896;-99.222;2024-01-15T02:53:41;21.20;1.00
12413;DHT22;13877;18.896;-99.222;2024-01-15T02:56:08;21.10;1.00
12413;DHT22;13877;18.896;-99.222;2024-01-15T02:58:35;21.10;1.00
12413;DHT22;13877;18.896;-99.222;2024-01-15T03:01:02;21.00;1.00
12413;DHT22;13877;18.896;-99.222;2024-01-15T03:03:29;21.00;1.00
12413;DHT22;13877;18.896;-99.222;2024-01-15T03:05:56;21.10;1.00
12413;DHT22;13877;18.896;-99.222;2024-01-15T03:08:22;21.10;1.00
12413;DHT22;13877;18.896;-99.222;2024-01-15T03:10:49;21.10;1.00
12413;DHT22;13877;18.896;-99.222;2024-01-15T03:13:16;21.00;1.00
12413;DHT22;13877;18.896;-99.222;2024-01-15T03:15:45;21.00;1.00
12413;DHT22;13877;18.896;-99.222;2024-01-15T03:18:12;20.90;1.00
12413;DHT22;13877;18.896;-99.222;2024-01-15T03:20:39;20.90;1.00
12413;DHT22;13877;18.896;-99.222;2024-01-15T03:23:06;20.80;1.00
12413;DHT22;13877;18.896;-99.222;2024-01-15T03:25:33;20.80;1.00
12413;DHT22;13877;18.896;-99.222;2024-01-15T03:28:00;20.80;1.00
12413;DHT22;13877;18.896;-99.222;2024-01-15T03:30:26;20.80;1.00
12413;DHT22;13877;18.896;-99.222;2024-01-15T03:32:53;20.90;1.00
12413;DHT22;13877;18.896;-99.222;2024-01-15T03:35:20;20.90;1.00
12413;DHT22;13877;18.896;-99.222;2024-01-15T03:37:47;20.90;1.00
12413;DHT22;13877;18.896;-99.222;2024-01-15T03:40:14;21.00;1.00
12413;DHT22;13877;18.896;-99.222;2024-01-15T03:42:41;21.00;1.00
12413;DHT22;13877;18.896;-99.222;2024-01-15T03:45:07;21.00;1.00
12413;DHT22;13877;18.896;-99.222;2024-01-15T03:47:34;21.00;1.00
12413;DHT22;13877;18.896;-99.222;2024-01-15T03:50:01;20.90;1.00
12413;DHT22;13877;18.896;-99.222;2024-01-15T03:52:28;20.90;1.00
12413;DHT22;13877;18.896;-99.222;2024-01-15T03:54:55;20.80;1.00
12413;DHT22;13877;18.896;-99.222;2024-01-15T03:57:22;20.90;1.00
12413;DHT22;13877;18.896;-99.222;2024-01-15T03:59:49;20.90;1.00
12413;DHT22;13877;18.896;-99.222;2024-01-15T04:02:15;20.80;1.00
12413;DHT22;13877;18.896;-99.222;2024-01-15T04:04:43;20.80;1.00
12413;DHT22;13877;18.896;-99.222;2024-01-15T04:07:10;20.90;1.00
12413;DHT22;13877;18.896;-99.222;2024-01-15T04:09:37;20.80;1.00
12413;DHT22;13877;18.896;-99.222;2024-01-15T04:12:04;20.80;1.00
12413;DHT22;13877;18.896;-99.222;2024-01-15T04:14:31;20.80;1.00
12413;DHT22;13877;18.896;-99.222;2024-01-15T04:16:58;20.80;1.00
12413;DHT22;13877;18.896;-99.222;2024-01-15T04:19:25;20.70;1.00
12413;DHT22;13877;18.896;-99.222;2024-01-15T04:21:52;20.70;1.00
12413;DHT22;13877;18.896;-99.222;2024-01-15T04:24:19;20.70;1.00
12413;DHT22;13877;18.896;-99.222;2024-01-15T04:26:45;20.70;1.00
12413;DHT22;13877;18.896;-99.222;2024-01-15T04:29:12;20.70;1.00
12413;DHT22;13877;18.896;-99.222;2024-01-15T04:31:39;20.80;1.00
12413;DHT22;13877;18.896;-99.222;2024-01-15T04:34:06;20.80;1.00
12413;DHT22;13877;18.896;-99.222;2024-01-15T04:36:40;20.80;1.00
12413;DHT22;13877;18.896;-99.222;2024-01-15T04:39:07;20.70;1.00
12413;DHT22;13877;18.896;-99.222;2024-01-15T04:41:34;20.80;1.00
12413;DHT22;13877;18.896;-99.222;2024-01-15T04:44:02;20.80;1.00
12413;DHT22;13877;18.896;-99.222;2024-01-15T04:46:28;20.80;1.00
12413;DHT22;13877;18.896;-99.222;2024-01-15T04:48:55;20.70;1.00
12413;DHT22;13877;18.896;-99.222;2024-01-15T04:51:22;20.70;1.00
12413;DHT22;13877;18.896;-99.222;2024-01-15T04:53:50;20.70;1.00
12413;DHT22;13877;18.896;-99.222;2024-01-15T04:56:17;20.50;1.00
12413;DHT22;13877;18.896;-99.222;2024-01-15T04:58:44;20.30;1.00
12413;DHT22;13877;18.896;-99.222;2024-01-15T05:01:11;20.00;1.00
12413;DHT22;13877;18.896;-99.222;2024-01-15T05:03:38;20.10;1.00
12413;DHT22;13877;18.896;-99.222;2024-01-15T05:06:05;20.00;1.00
12413;DHT22;13877;18.896;-99.222;2024-01-15T05:08:32;20.20;1.00
12413;DHT22;13877;18.896;-99.222;2024-01-15T05:10:59;20.40;1.00
12413;DHT22;13877;18.896;-99.222;2024-01-15T05:13:26;20.30;1.00
12413;DHT22;13877;18.896;-99.222;2024-01-15T05:15:52;20.10;1.00
12413;DHT22;13877;18.896;-99.222;2024-01-15T05:18:19;20.20;1.00
12413;DHT22;13877;18.896;-99.222;2024-01-15T05:20:46;20.20;1.00
12413;DHT22;13877;18.896;-99.222;2024-01-15T05:23:13;20.00;1.00
12413;DHT22;13877;18.896;-99.222;2024-01-15T05:25:40;19.90;1.00
12413;DHT22;13877;18.896;-99.222;2024-01-15T05:28:07;19.90;1.00
12413;DHT22;13877;18.896;-99.222;2024-01-15T05:30:34;19.70;1.00
12413;DHT22;13877;18.896;-99.222;2024-01-15T05:33:02;19.40;1.00
12413;DHT22;13877;18.896;-99.222;2024-01-15T05:35:29;19.20;1.00
12413;DHT22;13877;18.896;-99.222;2024-01-15T05:37:56;19.00;1.00
12413;DHT22;13877;18.896;-99.222;2024-01-15T05:40:23;18.80;1.00
12413;DHT22;13877;18.896;-99.222;2024-01-15T05:42:50;18.80;1.00
12413;DHT22;13877;18.896;-99.222;2024-01-15T05:45:16;18.70;1.00
12413;DHT22;13877;18.896;-99.222;2024-01-15T05:47:43;19.00;1.00
12413;DHT22;13877;18.896;-99.222;2024-01-15T05:50:10;19.30;1.00
12413;DHT22;13877;18.896;-99.222;2024-01-15T05:52:38;19.60;1.00
12413;DHT22;13877;18.896;-99.222;2024-01-15T05:55:05;19.60;1.00
12413;DHT22;13877;18.896;-99.222;2024-01-15T05:57:32;19.50;1.00
12413;DHT22;13877;18.896;-99.222;2024-01-15T06:00:00;19.30;1.00
12413;DHT22;13877;18.896;-99.222;2024-01-15T06:02:27;19.10;1.00
12413;DHT22;13877;18.896;-99.222;2024-01-15T06:04:54;18.90;1.00
12413;DHT22;13877;18.896;-99.222;2024-01-15T06:07:21;18.60;1.00
12413;DHT22;13877;18.896;-99.222;2024-01-15T06:09:49;18.40;1.00
12413;DHT22;13877;18.896;-99.222;2024-01-15T06:12:16;18.30;1.00
12413;DHT22;13877;18.896;-99.222;2024-01-15T06:14:42;18.30;1.00
12413;DHT22;13877;18.896;-99.222;2024-01-15T06:17:09;18.20;1.00
12413;DHT22;13877;18.896;-99.222;2024-01-15T06:19:37;18.00;1.00
12413;DHT22;13877;18.896;-99.222;2024-01-15T06:22:04;18.00;1.00
12413;DHT22;13877;18.896;-99.222;2024-01-15T06:24:31;18.10;1.00
12413;DHT22;13877;18.896;-99.222;2024-01-15T06:26:58;18.00;1.00
12413;DHT22;13877;18.896;-99.222;2024-01-15T06:29:25;18.00;1.00
12413;DHT22;13877;18.896;-99.222;2024-01-15T06:31:53;18.00;1.00
12413;DHT22;13877;18.896;-99.222;2024-01-15T06:34:20;18.10;1.00
12413;DHT22;13877;18.896;-99.222;2024-01-15T06:36:47;18.30;1.00
12413;DHT22;13877;18.896;-99.222;2024-01-15T06:39:14;18.40;1.00
12413;DHT22;13877;18.896;-99.222;2024-01-15T06:41:41;18.50;1.00
12413;DHT22;13877;18.896;-99.222;2024-01-15T06:44:10;18.40;1.00
12413;DHT22;13877;18.896;-99.222;2024-01-15T06:46:42;18.40;1.00
12413;DHT22;13877;18.896;-99.222;2024-01-15T06:49:10;18.40;1.00
12413;DHT22;13877;18.896;-99.222;2024-01-15T06:51:38;18.10;1.00
12413;DHT22;13877;18.896;-99.222;2024-01-15T06:54:05;17.90;1.00
12413;DHT22;13877;18.896;-99.222;2024-01-15T06:56:32;18.10;1.00
12413;DHT22;13877;18.896;-99.222;2024-01-15T06:58:59;18.00;1.00
12413;DHT22;13877;18.896;-99.222;2024-01-15T07:01:26;17.90;1.00
12413;DHT22;13877;18.896;-99.222;2024-01-15T07:03:53;17.90;1.00
12413;DHT22;13877;18.896;-99.222;2024-01-15T07:06:20;17.50;1.00
12413;DHT22;13877;18.896;-99.222;2024-01-15T07:08:47;17.10;1.00
12413;DHT22;13877;18.896;-99.222;2024-01-15T07:11:13;17.00;1.00
12413;DHT22;13877;18.896;-99.222;2024-01-15T07:13:40;16.80;1.00
12413;DHT22;13877;18.896;-99.222;2024-01-15T07:16:07;16.80;1.00
12413;DHT22;13877;18.896;-99.222;2024-01-15T07:18:34;16.70;1.00
12413;DHT22;13877;18.896;-99.222;2024-01-15T07:21:01;16.60;1.00
12413;DHT22;13877;18.896;-99.222;2024-01-15T07:23:29;16.70;1.00
12413;DHT22;13877;18.896;-99.222;2024-01-15T07:25:57;16.60;1.00
12413;DHT22;13877;18.896;-99.222;2024-01-15T07:28:24;16.70;1.00
12413;DHT22;13877;18.896;-99.222;2024-01-15T07:30:51;16.70;1.00
12413;DHT22;13877;18.896;-99.222;2024-01-15T07:33:18;16.60;1.00
12413;DHT22;13877;18.896;-99.222;2024-01-15T07:35:45;16.80;1.00
12413;DHT22;13877;18.896;-99.222;2024-01-15T07:38:13;16.80;1.00
12413;DHT22;13877;18.896;-99.222;2024-01-15T07:40:40;16.70;1.00
12413;DHT22;13877;18.896;-99.222;2024-01-15T07:43:07;16.60;1.00
12413;DHT22;13877;18.896;-99.222;2024-01-15T07:45:33;16.60;1.00
12413;DHT22;13877;18.896;-99.222;2024-01-15T07:48:02;16.60;1.00
12413;DHT22;13877;18.896;-99.222;2024-01-15T07:50:31;16.60;1.00
12413;DHT22;13877;18.896;-99.222;2024-01-15T07:52:58;16.50;1.00
12413;DHT22;13877;18.896;-99.222;2024-01-15T07:55:26;16.60;1.00
12413;DHT22;13877;18.896;-99.222;2024-01-15T07:57:53;16.60;1.00
12413;DHT22;13877;18.896;-99.222;2024-01-15T08:00:25;16.50;1.00
12413;DHT22;13877;18.896;-99.222;2024-01-15T08:02:52;16.30;1.00
12413;DHT22;13877;18.896;-99.222;2024-01-15T08:05:19;16.40;1.00
12413;DHT22;13877;18.896;-99.222;2024-01-15T08:07:48;16.40;1.00
12413;DHT22;13877;18.896;-99.222;2024-01-15T08:10:15;16.30;1.00
12413;DHT22;13877;18.896;-99.222;2024-01-15T08:12:42;16.40;1.00
12413;DHT22;13877;18.896;-99.222;2024-01-15T08:15:08;16.50;1.00
12413;DHT22;13877;18.896;-99.222;2024-01-15T08:17:35;16.60;1.00
12413;DHT22;13877;18.896;-99.222;2024-01-15T08:20:02;16.60;1.00
12413;DHT22;13877;18.896;-99.222;2024-01-15T08:22:31;16.70;1.00
12413;DHT22;13877;18.896;-99.222;2024-01-15T08:24:58;16.80;1.00
12413;DHT22;13877;18.896;-99.222;2024-01-15T08:27:25;16.80;1.00
12413;DHT22;13877;18.896;-99.222;2024-01-15T08:29:51;17.00;1.00
12413;DHT22;13877;18.896;-99.222;2024-01-15T08:32:18;17.10;1.00
12413;DHT22;13877;18.896;-99.222;2024-01-15T08:34:45;17.20;1.00
12413;DHT22;13877;18.896;-99.222;2024-01-15T08:37:13;17.20;1.00
12413;DHT22;13877;18.896;-99.222;2024-01-15T08:39:40;17.20;1.00
12413;DHT22;13877;18.896;-99.222;2024-01-15T08:42:07;17.20;1.00
12413;DHT22;13877;18.896;-99.222;2024-01-15T08:44:36;17.20;1.00
12413;DHT22;13877;18.896;-99.222;2024-01-15T08:47:03;17.20;1.00
12413;DHT22;13877;18.896;-99.222;2024-01-15T08:49:30;17.10;1.00
12413;DHT22;13877;18.896;-99.222;2024-01-15T08:51:58;17.00;1.00
12413;DHT22;13877;18.896;-99.222;2024-01-15T08:54:25;16.80;1.00
12413;DHT22;13877;18.896;-99.222;2024-01-15T08:56:51;16.60;1.00
12413;DHT22;13877;18.896;-99.222;2024-01-15T08:59:18;16.40;1.00
12413;DHT22;13877;18.896;-99.222;2024-01-15T09:01:54;16.30;1.00
12413;DHT22;13877;18.896;-99.222;2024-01-15T09:04:23;16.30;1.00
12413;DHT22;13877;18.896;-99.222;2024-01-15T09:06:51;16.30;1.00
12413;DHT22;13877;18.896;-99.222;2024-01-15T09:09:19;16.40;1.00
12413;DHT22;13877;18.896;-99.222;2024-01-15T09:11:46;16.50;1.00
12413;DHT22;13877;18.896;-99.222;2024-01-15T09:14:13;16.60;1.00
12413;DHT22;13877;18.896;-99.222;2024-01-15T09:16:40;16.60;1.00
12413;DHT22;13877;18.896;-99.222;2024-01-15T09:19:07;16.60;1.00
12413;DHT22;13877;18.896;-99.222;2024-01-15T09:21:34;16.50;1.00
12413;DHT22;13877;18.896;-99.222;2024-01-15T09:24:01;16.50;1.00
12413;DHT22;13877;18.896;-99.222;2024-01-15T09:26:27;16.60;1.00
12413;DHT22;13877;18.896;-99.222;2024-01-15T09:28:54;16.50;1.00
12413;DHT22;13877;18.896;-99.222;2024-01-15T09:31:21;16.50;1.00
12413;DHT22;13877;18.896;-99.222;2024-01-15T09:33:48;16.40;1.00
12413;DHT22;13877;18.896;-99.222;2024-01-15T09:36:15;16.40;1.00
12413;DHT22;13877;18.896;-99.222;2024-01-15T09:38:42;16.50;1.00
12413;DHT22;13877;18.896;-99.222;2024-01-15T09:41:09;16.40;1.00
12413;DHT22;13877;18.896;-99.222;2024-01-15T09:43:37;16.30;1.00
12413;DHT22;13877;18.896;-99.222;2024-01-15T09:46:06;16.30;1.00
12413;DHT22;13877;18.896;-99.222;2024-01-15T09:48:33;16.40;1.00
12413;DHT22;13877;18.896;-99.222;2024-01-15T09:51:01;16.40;1.00
12413;DHT22;13877;18.896;-99.222;2024-01-15T09:53:28;16.30;1.00
12413;DHT22;13877;18.896;-99.222;2024-01-15T09:55:57;16.30;1.00
12413;DHT22;13877;18.896;-99.222;2024-01-15T09:58:24;16.30;1.00
12413;DHT22;13877;18.896;-99.222;2024-01-15T10:00:52;16.40;1.00
12413;DHT22;13877;18.896;-99.222;2024-01-15T10:03:19;16.30;1.00
12413;DHT22;13877;18.896;-99.222;2024-01-15T10:05:49;16.30;1.00
12413;DHT22;13877;18.896;-99.222;2024-01-15T10:08:17;16.20;1.00
12413;DHT22;13877;18.896;-99.222;2024-01-15T10:10:44;16.20;1.00
12413;DHT22;13877;18.896;-99.222;2024-01-15T10:13:12;16.10;1.00
12413;DHT22;13877;18.896;-99.222;2024-01-15T10:15:40;16.20;1.00
12413;DHT22;13877;18.896;-99.222;2024-01-15T10:18:10;16.20;1.00
12413;DHT22;13877;18.896;-99.222;2024-01-15T10:20:37;16.30;1.00
12413;DHT22;13877;18.896;-99.222;2024-01-15T10:23:04;16.30;1.00
12413;DHT22;13877;18.896;-99.222;2024-01-15T10:25:30;16.20;1.00
12413;DHT22;13877;18.896;-99.222;2024-01-15T10:28:02;16.20;1.00
12413;DHT22;13877;18.896;-99.222;2024-01-15T10:30:30;16.20;1.00
12413;DHT22;13877;18.896;-99.222;2024-01-15T10:33:03;16.20;1.00
12413;DHT22;13877;18.896;-99.222;2024-01-15T10:35:31;16.30;1.00
12413;DHT22;13877;18.896;-99.222;2024-01-15T10:37:59;16.30;1.00
12413;DHT22;13877;18.896;-99.222;2024-01-15T10:40:27;16.20;1.00
12413;DHT22;13877;18.896;-99.222;2024-01-15T10:42:54;16.30;1.00
12413;DHT22;13877;18.896;-99.222;2024-01-15T10:45:22;16.30;1.00
12413;DHT22;13877;18.896;-99.222;2024-01-15T10:47:49;16.20;1.00
12413;DHT22;13877;18.896;-99.222;2024-01-15T10:50:16;16.20;1.00
12413;DHT22;13877;18.896;-99.222;2024-01-15T10:52:43;16.20;1.00
12413;DHT22;13877;18.896;-99.222;2024-01-15T10:55:10;16.20;1.00
12413;DHT22;13877;18.896;-99.222;2024-01-15T10:57:38;16.20;1.00
12413;DHT22;13877;18.896;-99.222;2024-01-15T11:00:06;16.20;1.00
12413;DHT22;13877;18.896;-99.222;2024-01-15T11:02:35;16.10;1.00
12413;DHT22;13877;18.896;-99.222;2024-01-15T11:05:03;16.10;1.00
12413;DHT22;13877;18.896;-99.222;2024-01-15T11:07:33;16.10;1.00
12413;DHT22;13877;18.896;-99.222;2024-01-15T11:10:02;16.10;1.00
12413;DHT22;13877;18.896;-99.222;2024-01-15T11:12:29;15.90;1.00
12413;DHT22;13877;18.896;-99.222;2024-01-15T11:15:04;16.00;1.00
12413;DHT22;13877;18.896;-99.222;2024-01-15T11:18:00;16.00;1.00
12413;DHT22;13877;18.896;-99.222;2024-01-15T11:20:27;16.00;1.00
12413;DHT22;13877;18.896;-99.222;2024-01-15T11:22:54;15.90;1.00
12413;DHT22;13877;18.896;-99.222;2024-01-15T11:25:23;15.80;1.00
12413;DHT22;13877;18.896;-99.222;2024-01-15T11:27:52;15.80;1.00
12413;DHT22;13877;18.896;-99.222;2024-01-15T11:30:20;15.80;1.00
12413;DHT22;13877;18.896;-99.222;2024-01-15T11:32:50;15.80;1.00
12413;DHT22;13877;18.896;-99.222;2024-01-15T11:35:17;15.90;1.00
12413;DHT22;13877;18.896;-99.222;2024-01-15T11:42:50;15.80;1.00
12413;DHT22;13877;18.896;-99.222;2024-01-15T11:45:22;15.80;1.00
12413;DHT22;13877;18.896;-99.222;2024-01-15T11:50:22;15.80;1.00
12413;DHT22;13877;18.896;-99.222;2024-01-15T11:53:03;15.80;1.00
12413;DHT22;13877;18.896;-99.222;2024-01-15T11:55:39;15.90;1.00
12413;DHT22;13877;18.896;-99.222;2024-01-15T11:58:11;15.90;1.00
12413;DHT22;13877;18.896;-99.222;2024-01-15T12:00:44;15.80;1.00
12413;DHT22;13877;18.896;-99.222;2024-01-15T12:03:11;15.80;1.00
12413;DHT22;13877;18.896;-99.222;2024-01-15T12:05:39;15.90;1.00
12413;DHT22;13877;18.896;-99.222;2024-01-15T12:08:06;15.90;1.00
12413;DHT22;13877;18.896;-99.222;2024-01-15T12:10:40;15.90;1.00
12413;DHT22;13877;18.896;-99.222;2024-01-15T12:15:56;15.90;1.00
12413;DHT22;13877;18.896;-99.222;2024-01-15T12:18:23;15.90;1.00
12413;DHT22;13877;18.896;-99.222;2024-01-15T12:20:50;15.90;1.00
12413;DHT22;13877;18.896;-99.222;2024-01-15T12:23:18;15.80;1.00
12413;DHT22;13877;18.896;-99.222;2024-01-15T12:25:45;15.80;1.00
12413;DHT22;13877;18.896;-99.222;2024-01-15T12:28:13;15.70;1.00
12413;DHT22;13877;18.896;-99.222;2024-01-15T12:30:41;15.60;1.00
12413;DHT22;13877;18.896;-99.222;2024-01-15T12:33:09;15.50;1.00
12413;DHT22;13877;18.896;-99.222;2024-01-15T12:35:36;15.50;1.00
12413;DHT22;13877;18.896;-99.222;2024-01-15T12:38:03;15.50;1.00
12413;DHT22;13877;18.896;-99.222;2024-01-15T12:40:32;15.70;1.00
12413;DHT22;13877;18.896;-99.222;2024-01-15T12:43:00;15.70;1.00
12413;DHT22;13877;18.896;-99.222;2024-01-15T12:45:26;15.80;1.00
12413;DHT22;13877;18.896;-99.222;2024-01-15T12:47:53;15.80;1.00
12413;DHT22;13877;18.896;-99.222;2024-01-15T12:50:24;15.80;1.00
12413;DHT22;13877;18.896;-99.222;2024-01-15T12:52:52;15.70;1.00
12413;DHT22;13877;18.896;-99.222;2024-01-15T12:55:19;15.60;1.00
12413;DHT22;13877;18.896;-99.222;2024-01-15T12:57:46;15.60;1.00
12413;DHT22;13877;18.896;-99.222;2024-01-15T13:00:13;15.80;1.00
12413;DHT22;13877;18.896;-99.222;2024-01-15T13:02:41;15.90;1.00
12413;DHT22;13877;18.896;-99.222;2024-01-15T13:05:09;16.00;1.00
12413;DHT22;13877;18.896;-99.222;2024-01-15T13:07:42;16.10;1.00
12413;DHT22;13877;18.896;-99.222;2024-01-15T13:10:09;16.10;1.00
12413;DHT22;13877;18.896;-99.222;2024-01-15T13:12:36;16.10;1.00
12413;DHT22;13877;18.896;-99.222;2024-01-15T13:15:03;16.10;1.00
12413;DHT22;13877;18.896;-99.222;2024-01-15T13:17:30;16.00;1.00
12413;DHT22;13877;18.896;-99.222;2024-01-15T13:19:57;16.00;1.00
12413;DHT22;13877;18.896;-99.222;2024-01-15T13:22:24;15.90;1.00
12413;DHT22;13877;18.896;-99.222;2024-01-15T13:24:59;15.80;1.00
12413;DHT22;13877;18.896;-99.222;2024-01-15T13:27:26;15.70;1.00
12413;DHT22;13877;18.896;-99.222;2024-01-15T13:29:54;15.80;1.00
12413;DHT22;13877;18.896;-99.222;2024-01-15T13:32:30;16.00;1.00
12413;DHT22;13877;18.896;-99.222;2024-01-15T13:34:57;16.10;1.00
12413;DHT22;13877;18.896;-99.222;2024-01-15T13:37:24;16.20;1.00
12413;DHT22;13877;18.896;-99.222;2024-01-15T13:39:52;16.30;1.00
12413;DHT22;13877;18.896;-99.222;2024-01-15T13:42:20;16.30;1.00
12413;DHT22;13877;18.896;-99.222;2024-01-15T13:44:49;16.30;1.00
12413;DHT22;13877;18.896;-99.222;2024-01-15T13:47:17;16.50;1.00
12413;DHT22;13877;18.896;-99.222;2024-01-15T13:49:44;16.70;1.00
12413;DHT22;13877;18.896;-99.222;2024-01-15T13:52:11;16.80;1.00
12413;DHT22;13877;18.896;-99.222;2024-01-15T13:54:38;17.00;1.00
12413;DHT22;13877;18.896;-99.222;2024-01-15T13:57:05;17.20;1.00
12413;DHT22;13877;18.896;-99.222;2024-01-15T13:59:33;17.60;1.00
12413;DHT22;13877;18.896;-99.222;2024-01-15T14:02:01;17.90;1.00
12413;DHT22;13877;18.896;-99.222;2024-01-15T14:04:28;18.20;1.00
12413;DHT22;13877;18.896;-99.222;2024-01-15T14:06:56;18.60;1.00
12413;DHT22;13877;18.896;-99.222;2024-01-15T14:09:23;18.80;1.00
12413;DHT22;13877;18.896;-99.222;2024-01-15T14:11:49;19.10;1.00
12413;DHT22;13877;18.896;-99.222;2024-01-15T14:14:17;19.40;1.00
12413;DHT22;13877;18.896;-99.222;2024-01-15T14:16:44;19.60;1.00
12413;DHT22;13877;18.896;-99.222;2024-01-15T14:19:10;19.90;1.00
12413;DHT22;13877;18.896;-99.222;2024-01-15T14:21:37;20.30;1.00
12413;DHT22;13877;18.896;-99.222;2024-01-15T14:24:05;20.50;1.00
12413;DHT22;13877;18.896;-99.222;2024-01-15T14:26:31;20.70;1.00
12413;DHT22;13877;18.896;-99.222;2024-01-15T14:28:58;20.90;1.00
12413;DHT22;13877;18.896;-99.222;2024-01-15T14:31:25;21.20;1.00
12413;DHT22;13877;18.896;-99.222;2024-01-15T14:33:53;21.50;1.00
12413;DHT22;13877;18.896;-99.222;2024-01-15T14:36:21;21.60;1.00
12413;DHT22;13877;18.896;-99.222;2024-01-15T14:38:49;21.90;1.00
12413;DHT22;13877;18.896;-99.222;2024-01-15T14:41:16;22.30;1.00
12413;DHT22;13877;18.896;-99.222;2024-01-15T14:43:43;22.30;1.00
12413;DHT22;13877;18.896;-99.222;2024-01-15T14:46:11;22.30;1.00
12413;DHT22;13877;18.896;-99.222;2024-01-15T14:48:38;21.90;1.00
12413;DHT22;13877;18.896;-99.222;2024-01-15T14:51:05;21.20;1.00
12413;DHT22;13877;18.896;-99.222;2024-01-15T14:53:33;21.30;1.00
12413;DHT22;13877;18.896;-99.222;2024-01-15T14:55:59;21.40;1.00
12413;DHT22;13877;18.896;-99.222;2024-01-15T14:58:30;21.30;1.00
12413;DHT22;13877;18.896;-99.222;2024-01-15T15:00:57;21.50;1.00
12413;DHT22;13877;18.896;-99.222;2024-01-15T15:03:25;21.90;1.00
12413;DHT22;13877;18.896;-99.222;2024-01-15T15:05:52;22.40;1.00
12413;DHT22;13877;18.896;-99.222;2024-01-15T15:08:19;22.80;1.00
12413;DHT22;13877;18.896;-99.222;2024-01-15T15:10:45;23.30;1.00
12413;DHT22;13877;18.896;-99.222;2024-01-15T15:13:12;23.50;1.00
12413;DHT22;13877;18.896;-99.222;2024-01-15T15:15:39;23.90;1.00
12413;DHT22;13877;18.896;-99.222;2024-01-15T15:18:06;24.00;1.00
12413;DHT22;13877;18.896;-99.222;2024-01-15T15:20:33;23.80;1.00
12413;DHT22;13877;18.896;-99.222;2024-01-15T15:23:02;23.70;1.00
12413;DHT22;13877;18.896;-99.222;2024-01-15T15:25:31;23.70;1.00
12413;DHT22;13877;18.896;-99.222;2024-01-15T15:27:58;23.00;1.00